Bei Facebook empfehlenBei Twitter postenGoogle plusPinterest

Das Wetter im Erzgebirge am 28.02.2016

Wetter und Klima am 28.02.2016 Holzhau im Erzgebirge (630m ü.NN)
Letzte gemessene Temperatur und Uhrzeit der Messung23:45:00 Uhr0.40 °C
Temperatur (Maximum / Höchstwert) und Uhrzeit der Messung13:15:00 Uhr4.40 °C
Temperatur (Minimum / Tiefstwert) und Uhrzeit der Messung06:30:00-7.80 °C
Errechneter Absolutwert der Temperaturschwankungen zwischen Tmin und Tmax des Tages12.20 K
Errechnete Tagesmitteltemperatur-1.69063 °C
Gesamt - Niederschlag des Tages (in flüssiger Form)0.52 Liter / m²
Luftdruck (Maximum / Höchstwert) und Zeitpunkt der Messung21:15:00 Uhr1012.90 hPa
Luftdruck (Minimum / Tiefstwert) und Zeitpunkt der Messung00:30:00 Uhr1006.30 hPa
Errechneter Absolutwert der Luftdruckschwankungen des Tages6.60 hPa
Höchste gemessene Windgeschwindigkeit und Uhrzeit der Messung14:15:00 Uhr12.24 km/h
Errechnete Windhäufigkeit in Relation zu den Messwerten des Tages28.12500 %
Niedrigste Windkühle (Windchill) und Zeitpunkt der Messung05:30:00 Uhr-10.70 °C
Taupunkt (Maximum / Höchstwert) und Uhrzeit der Messung12:00:00 Uhr1.40 °C
Taupunkt (Minimum / Tiefstwert) und Uhrzeit der Messung06:30:00-9.30 °C
Anzahl der automatisch eingelesenen Messwerte 96

Detaillierte Wetter- und Klima- Messwerte für den 28.02.2016 in Holzhau im Erzgebirge (630m ü.NN)
ZeitTemperaturLuftdruckRel. LuftfeuchteWindWindrichtungWindchillTaupunktNiederschlag l/m²
23:45:000.40 °C1012.40 hPa89.00 %-1.20 °C0.52
23:30:000.40 °C1012.20 hPa89.00 %-1.20 °C0.52
23:15:000.40 °C1012.30 hPa89.00 %-1.20 °C0.52
23:00:000.40 °C1012.30 hPa89.00 %-1.20 °C0.52
22:45:000.40 °C1012.30 hPa89.00 %5.76 km/hONO-1.50 °C-1.20 °C0.52
22:30:000.40 °C1012.30 hPa88.00 %3.24 km/hSO0.40 °C-1.30 °C0.52
22:15:000.30 °C1012.40 hPa88.00 %-1.40 °C0.52
22:00:000.30 °C1012.40 hPa88.00 %-1.40 °C0.52
21:45:000.20 °C1012.50 hPa88.00 %1.08 km/hSO0.20 °C-1.50 °C0.52
21:30:000.10 °C1012.50 hPa87.00 %-1.80 °C0.52
21:15:000.10 °C1012.90 hPa87.00 %-1.80 °C0.52
21:00:000.10 °C1012.70 hPa87.00 %-1.80 °C0.52
20:45:00-0.10 °C1012.50 hPa86.00 %-2.40 °C0.52
20:30:00-0.10 °C1012.30 hPa86.00 %-2.40 °C0.52
20:15:00-0.20 °C1012.30 hPa86.00 %-2.50 °C0.52
20:00:00-0.40 °C1012.40 hPa86.00 %-2.70 °C0.52
19:45:00-0.50 °C1012.10 hPa85.00 %-3.00 °C0.52
19:30:00-0.50 °C1012.30 hPa85.00 %-3.00 °C0.52
19:15:00-0.60 °C1012.30 hPa84.00 %-3.20 °C0.52
19:00:00-0.20 °C1012.20 hPa84.00 %-2.80 °C0.52
18:45:00-0.10 °C1012.10 hPa84.00 %-2.80 °C0.52
18:30:000.10 °C1011.80 hPa83.00 %-2.40 °C0.52
18:15:000.30 °C1011.60 hPa83.00 %5.04 km/hSO-1.30 °C-2.20 °C0.52
18:00:000.40 °C1011.60 hPa82.00 %-2.30 °C0.52
17:45:000.60 °C1011.40 hPa82.00 %-2.10 °C0.52
17:30:000.80 °C1011.50 hPa81.00 %-2.10 °C0.52
17:15:001.10 °C1011.30 hPa81.00 %-1.80 °C0.52
17:00:001.30 °C1011.20 hPa80.00 %-1.80 °C0.52
16:45:001.60 °C1011.10 hPa80.00 %-1.50 °C0.52
16:30:001.90 °C1011.20 hPa80.00 %-1.20 °C0.52
16:15:002.10 °C1011.20 hPa79.00 %3.96 km/hSSO2.10 °C-1.20 °C0.52
16:00:002.40 °C1011.10 hPa79.00 %-0.90 °C0.52
15:45:002.70 °C1010.60 hPa78.00 %3.24 km/hSO2.70 °C-0.70 °C0.52
15:30:002.90 °C1010.60 hPa78.00 %-0.50 °C0.52
15:15:002.90 °C1010.60 hPa78.00 %-0.50 °C0.52
15:00:002.90 °C1010.40 hPa78.00 %-0.50 °C0.52
14:45:003.00 °C1010.20 hPa78.00 %2.16 km/hOSO3.00 °C-0.50 °C0.52
14:30:002.90 °C1010.10 hPa77.00 %-0.70 °C0.52
14:15:003.00 °C1010.20 hPa77.00 %12.24 km/hSSO-0.20 °C-0.60 °C0.52
14:00:003.20 °C1009.90 hPa77.00 %-0.40 °C0.52
13:45:003.60 °C1010.10 hPa77.00 %0.00 °C0.52
13:30:003.90 °C1009.90 hPa77.00 %0.20 °C0.52
13:15:004.40 °C1009.50 hPa78.00 %2.52 km/hNO4.40 °C0.90 °C0.52
13:00:003.90 °C1009.60 hPa79.00 %1.80 km/hSO3.90 °C0.60 °C0.52
12:45:003.70 °C1009.70 hPa79.00 %5.40 km/hOSO2.40 °C0.40 °C0.52
12:30:003.60 °C1009.70 hPa81.00 %0.70 °C0.52
12:15:003.90 °C1009.70 hPa82.00 %7.56 km/hOSO2.00 °C1.10 °C0.52
12:00:003.90 °C1009.70 hPa84.00 %2.88 km/hSO3.90 °C1.40 °C0.52
11:45:003.20 °C1009.60 hPa85.00 %0.90 °C0.52
11:30:003.10 °C1009.60 hPa86.00 %2.16 km/hN3.10 °C1.00 °C0.52
11:15:002.80 °C1009.40 hPa88.00 %1.00 °C 
11:00:002.30 °C1009.60 hPa89.00 %0.70 °C 
10:45:001.80 °C1009.80 hPa90.00 %3.96 km/hSO1.80 °C0.30 °C 
10:30:001.30 °C1009.80 hPa91.00 %3.60 km/hOSO1.30 °C0.00 °C 
10:15:001.30 °C1009.60 hPa91.00 %3.60 km/hN1.30 °C0.00 °C 
10:00:001.10 °C1009.50 hPa92.00 %3.96 km/hNNO1.10 °C-0.10 °C 
09:45:000.70 °C1009.20 hPa93.00 %2.88 km/hOSO0.70 °C-0.30 °C 
09:30:000.10 °C1009.40 hPa93.00 %3.60 km/hONO0.10 °C-0.90 °C 
09:15:00-1.60 °C1009.10 hPa92.00 %11.16 km/hSO-5.50 °C-2.90 °C 
09:00:00-2.80 °C1009.10 hPa92.00 %-4.00 °C 
08:45:00-3.80 °C1009.10 hPa92.00 %-5.00 °C 
08:30:00-4.90 °C1009.00 hPa91.00 %-6.30 °C 
08:15:00-5.40 °C1008.70 hPa91.00 %-6.80 °C 
08:00:00-5.90 °C1008.80 hPa91.00 %-7.30 °C 
07:45:00-6.80 °C1008.70 hPa91.00 %-8.20 °C 
07:30:00-7.10 °C1008.20 hPa90.00 %-8.60 °C 
07:15:00-7.50 °C1008.20 hPa90.00 %-9.00 °C 
07:00:00-7.50 °C1008.20 hPa90.00 %-9.00 °C 
06:45:00-7.50 °C1008.40 hPa90.00 %-9.00 °C 
06:30:00-7.80 °C1008.00 hPa90.00 %-9.30 °C 
06:15:00-7.80 °C1007.80 hPa90.00 %-9.30 °C 
06:00:00-7.60 °C1007.90 hPa90.00 %-9.10 °C 
05:45:00-7.40 °C1008.10 hPa90.00 %-8.90 °C 
05:30:00-7.50 °C1008.10 hPa89.00 %6.12 km/hOSO-10.70 °C-9.20 °C 
05:15:00-7.40 °C1007.80 hPa89.00 %1.44 km/hO-7.40 °C-9.10 °C 
05:00:00-7.30 °C1007.70 hPa89.00 %5.04 km/hSO-9.90 °C-9.00 °C 
04:45:00-7.30 °C1007.60 hPa89.00 %5.04 km/hOSO-9.90 °C-9.00 °C 
04:30:00-7.10 °C1007.70 hPa89.00 %1.80 km/hOSO-7.10 °C-8.80 °C 
04:15:00-7.20 °C1007.50 hPa89.00 %-8.90 °C 
04:00:00-7.10 °C1007.20 hPa89.00 %1.80 km/hOSO-7.10 °C-8.80 °C 
03:45:00-7.30 °C1007.30 hPa89.00 %-9.00 °C 
03:30:00-7.50 °C1007.20 hPa88.00 %-9.30 °C 
03:15:00-7.20 °C1007.00 hPa89.00 %-8.90 °C 
03:00:00-7.40 °C1007.00 hPa89.00 %-9.10 °C 
02:45:00-7.40 °C1006.90 hPa89.00 %-9.10 °C 
02:30:00-7.20 °C1006.90 hPa89.00 %-8.90 °C 
02:15:00-7.00 °C1006.80 hPa88.00 %-8.80 °C 
02:00:00-7.00 °C1006.70 hPa88.00 %-8.80 °C 
01:45:00-6.90 °C1006.70 hPa88.00 %-8.80 °C 
01:30:00-6.60 °C1006.70 hPa88.00 %-8.50 °C 
01:15:00-6.20 °C1006.60 hPa88.00 %-8.10 °C 
01:00:00-5.90 °C1006.60 hPa88.00 %-7.80 °C 
00:45:00-5.60 °C1006.60 hPa88.00 %-7.50 °C 
00:30:00-5.60 °C1006.30 hPa88.00 %-7.50 °C 
00:15:00-5.50 °C1006.30 hPa87.00 %-7.50 °C 
00:00:00-5.20 °C1006.60 hPa87.00 %-7.20 °C 

Permanenter Link zu dieser Seite: Wetter im Erzgebirge am 28.02.2016
Performance-Info: Die Erstellung der Seite / Statistik(en) / Tabelle(n) erforderte 5 Datenbankserver-Abfrage(n) und dauerte 98 Millisekunden. (Dieser Messwert ist von der Gesamt-Auslastung des Servers abhängig.)
Erzgebirge - Wetter | Erzgebirge - Wetter (Mobilgeräte) | Komplette Klimadatenbank